• Join FlightAware (Why Join?)
  • Login
  • US Flag 
05:11PM EDT


 

Airport Tracker/Info


-or-


 

Live Flight TrackerFlight Track Log ✈ AWE3244 ✈ 08-Apr-2014 ✈ KDCA - KPBI

Flight Track Log - Related Links

Times and Time Zones

All times are in EDT time to prevent confusion due to time zone crossing. See the AWE3244 flight status page for this flight to view local times or setup timezone preferences in your user account.

Time Position Orientation Groundspeed Altitude Reporting Facility
EDT Latitude Longitude Course Direction KTS MPH feet Rate Location/Type
10:28AM 38.8667 -77.0333 180° South 154 177 900  Level Potomac TRACON
10:29AM 38.9000 -77.0833 311° West 162 186 3,200 2,400 Climbing Potomac TRACON
10:30AM 38.9333 -77.1167 322° Northwest 198 228 5,600 2,340 Climbing Potomac TRACON
10:31AM 38.6150 -76.7867 134° Southeast  Level FlightAware Approximate
10:31AM 38.9533 -77.1397 318° Northwest 206 237 6,600  Level Washington Center
10:32AM 38.5325 -76.7165 171° South  Level FlightAware Approximate
10:32AM 39.0081 -77.1089 24° Northeast 298 343 8,800  Level Washington Center
10:33AM 38.4309 -76.7000 180° South  Level FlightAware Approximate
10:33AM 38.9800 -77.0228 113° Southeast 306 352 10,600  Level Washington Center
10:34AM 38.3413 -76.6833 180° South  Level FlightAware Approximate
10:34AM 38.9206 -76.9364 131° Southeast 337 388 12,800  Level Washington Center
10:36AM 38.7608 -76.8428 155° Southeast 318 366 18,300 2,580 Climbing Washington Center
10:37AM 38.6781 -76.7936 155° Southeast 318 366 20,600 2,100 Climbing Washington Center
10:38AM 38.5950 -76.7472 156° South 323 372 22,500 1,200 Climbing Washington Center
10:39AM 38.5100 -76.7167 164° South 323 372 23,000 180 Climbing Washington Center
10:41AM 38.3411 -76.6956 174° South 313 360 23,200 1,020 Climbing Washington Center
10:42AM 38.2619 -76.6839 173° South 306 352 26,200 2,280 Climbing Washington Center
10:43AM 38.1892 -76.6750 175° South 292 336 27,700 1,380 Climbing Washington Center
10:44AM 38.1100 -76.6631 173° South 285 328 29,000 1,200 Climbing Washington Center
10:45AM 38.0289 -76.6542 175° South 291 335 30,200 1,200 Climbing Washington Center
10:46AM 37.9350 -76.6503 178° South 306 352 31,500 1,080 Climbing Washington Center
10:47AM 37.8536 -76.6594 185° South 306 352 32,400 840 Climbing Washington Center
10:48AM 37.7681 -76.6714 186° South 311 358 33,200 780 Climbing Washington Center
10:49AM 37.6803 -76.6808 185° South 311 358 34,000 360 Climbing Washington Center
10:50AM 37.5947 -76.6900 185° South 311 358 34,000 180 Level Washington Center
10:51AM 37.5069 -76.7019 186° South 311 358 34,400 780 Climbing Washington Center
10:52AM 37.4211 -76.7214 190° South 311 358 35,600 780 Climbing Washington Center
10:53AM 37.3522 -76.7492 198° South 306 352 36,000 180 Climbing Washington Center
10:54AM 37.2725 -76.7794 197° South 301 346 36,000  Level Washington Center
10:55AM 37.2014 -76.8147 202° Southwest 295 339 36,000  Level Washington Center
10:56AM 37.1281 -76.8450 198° South 290 334 36,000  Level Washington Center
10:57AM 37.0525 -76.8750 198° South 290 334 36,000  Level Washington Center
10:58AM 36.9833 -76.9128 204° Southwest 290 334 36,000  Level Washington Center
10:59AM 36.9203 -76.9636 213° Southwest 284 327 36,000  Level Washington Center
11:00AM 36.8547 -77.0169 213° Southwest 284 327 36,000  Level Washington Center
11:01AM 36.7917 -77.0678 213° Southwest 284 327 36,000  Level Washington Center
11:02AM 36.7264 -77.1233 214° Southwest 284 327 36,000  Level Washington Center
11:03AM 36.6589 -77.1739 211° Southwest 284 327 36,000  Level Washington Center
11:04AM 36.5956 -77.2269 214° Southwest 284 327 36,000  Level Washington Center
11:05AM 36.5239 -77.2822 212° Southwest 284 327 36,000  Level Washington Center
11:06AM 36.4564 -77.3378 214° Southwest 284 327 36,000  Level Washington Center
11:07AM 36.3889 -77.3903 212° Southwest 284 327 36,000  Level Washington Center
11:08AM 36.3233 -77.4481 215° Southwest 284 327 36,000  Level Washington Center
11:09AM 36.2556 -77.4981 211° Southwest 284 327 36,000  Level Washington Center
11:10AM 36.1858 -77.5531 212° Southwest 289 333 36,000  Level Washington Center
11:11AM 36.1183 -77.6078 213° Southwest 289 333 36,000  Level Washington Center
11:13AM 35.9786 -77.7172 212° Southwest 294 338 36,000  Level Washington Center
11:14AM 35.9108 -77.7719 213° Southwest 294 338 36,000  Level Washington Center
11:17AM 35.7014 -77.9325 212° Southwest 299 344 36,000  Level Washington Center
11:18AM 35.6314 -77.9867 212° Southwest 299 344 36,000  Level Washington Center
11:19AM 35.5614 -78.0431 213° Southwest 299 344 36,000  Level Washington Center
11:20AM 35.4936 -78.0922 211° Southwest 299 344 36,000  Level Washington Center
11:22AM 35.3514 -78.2047 213° Southwest 305 351 36,000  Level Washington Center
11:23AM 35.2792 -78.2611 213° Southwest 305 351 36,000  Level Washington Center
11:24AM 35.2219 -78.3047 212° Southwest 305 351 36,000  Level Washington Center
11:25AM 35.1433 -78.3658 212° Southwest 305 351 36,000  Level Washington Center
11:26AM 35.0711 -78.4217 212° Southwest 310 357 36,000  Level Washington Center
11:28AM 34.9286 -78.5281 211° Southwest 310 357 36,000  Level Washington Center
11:29AM 34.8583 -78.5839 213° Southwest 310 357 36,000  Level Washington Center
11:30AM 34.7839 -78.6417 213° Southwest 310 357 36,000  Level Washington Center
11:32AM 34.6200 -78.7628 211° Southwest 308 354 36,000  Level Jacksonville Center
11:33AM 34.5486 -78.8164 212° Southwest 313 360 36,000  Level Jacksonville Center
11:35AM 34.3981 -78.9369 213° Southwest 313 360 36,000  Level Jacksonville Center
11:36AM 34.3228 -78.9906 210° Southwest 313 360 36,000  Level Jacksonville Center
11:37AM 34.2450 -79.0392 207° Southwest 313 360 36,000  Level Jacksonville Center
11:38AM 34.1669 -79.0853 206° Southwest 313 360 36,000  Level Jacksonville Center
11:39AM 34.0892 -79.1314 206° Southwest 313 360 36,000  Level Jacksonville Center
11:40AM 34.0114 -79.1797 207° Southwest 318 366 36,000  Level Jacksonville Center
11:41AM 33.9356 -79.2281 208° Southwest 318 366 36,000  Level Jacksonville Center
11:42AM 33.8575 -79.2764 207° Southwest 318 366 36,000  Level Jacksonville Center
11:43AM 33.7775 -79.3222 205° Southwest 318 366 36,000  Level Jacksonville Center
11:44AM 33.7119 -79.3597 205° Southwest 311 358 36,000  Level Jacksonville Center
11:45AM 33.6317 -79.4078 206° Southwest 311 358 36,000  Level Jacksonville Center
11:46AM 33.5539 -79.4558 207° Southwest 316 364 36,000  Level Jacksonville Center
11:47AM 33.4758 -79.5011 206° Southwest 316 364 36,000  Level Jacksonville Center
11:48AM 33.3978 -79.5489 207° Southwest 316 364 36,000  Level Jacksonville Center
11:49AM 33.3197 -79.5967 207° Southwest 321 369 36,000  Level Jacksonville Center
11:50AM 33.2394 -79.6442 206° Southwest 321 369 36,000  Level Jacksonville Center
11:52AM 33.0811 -79.7392 205° Southwest 321 369 36,000  Level Jacksonville Center
11:53AM 32.9947 -79.7892 206° Southwest 321 369 36,000  Level Jacksonville Center
11:54AM 32.9144 -79.8367 206° Southwest 321 369 36,000  Level Jacksonville Center
11:55AM 32.8364 -79.8839 207° Southwest 321 369 36,000  Level Jacksonville Center
11:56AM 32.7581 -79.9308 207° Southwest 321 369 36,000  Level Jacksonville Center
11:57AM 32.6778 -79.9778 206° Southwest 321 369 36,000  Level Jacksonville Center
11:58AM 32.5975 -80.0225 205° Southwest 321 369 36,000  Level Jacksonville Center
11:59AM 32.5192 -80.0717 208° Southwest 321 369 36,000  Level Jacksonville Center
12:00PM 32.4389 -80.1183 206° Southwest 321 369 36,000  Level Jacksonville Center
12:01PM 32.3606 -80.1650 207° Southwest 321 369 36,000  Level Jacksonville Center
12:02PM 32.2822 -80.2092 205° Southwest 321 369 36,000  Level Jacksonville Center
12:03PM 32.2039 -80.2581 208° Southwest 321 369 36,000  Level Jacksonville Center
12:04PM 32.1233 -80.3047 206° Southwest 314 361 36,000  Level Jacksonville Center
12:05PM 32.0450 -80.3508 207° Southwest 322 371 36,000  Level Jacksonville Center
12:06PM 31.9667 -80.3972 207° Southwest 322 371 36,000  Level Jacksonville Center
12:07PM 31.8861 -80.4433 206° Southwest 322 371 36,000  Level Jacksonville Center
12:08PM 31.8056 -80.4872 205° Southwest 316 364 36,000  Level Jacksonville Center
12:10PM 31.6422 -80.5817 206° Southwest 322 371 36,000  Level Jacksonville Center
12:11PM 31.5639 -80.6300 208° Southwest 322 371 36,000  Level Jacksonville Center
12:13PM 31.4025 -80.7214 206° Southwest 322 371 36,000  Level Jacksonville Center
12:14PM 31.3219 -80.7669 206° Southwest 322 371 36,000  Level Jacksonville Center
12:15PM 31.2414 -80.8150 207° Southwest 322 371 36,000  Level Jacksonville Center
12:16PM 31.1586 -80.8606 205° Southwest 322 371 36,000  Level Jacksonville Center
12:18PM 30.9950 -80.9539 206° Southwest 322 371 36,000  Level Jacksonville Center
12:19PM 30.9142 -80.9967 204° Southwest 322 371 36,000  Level Jacksonville Center
12:20PM 30.8336 -81.0442 207° Southwest 327 376 36,000  Level Jacksonville Center
12:21PM 30.7547 -81.0892 206° Southwest 322 371 36,000  Level Jacksonville Center
12:22PM 30.6719 -81.1342 205° Southwest 322 371 36,000  Level Jacksonville Center
12:23PM 30.5803 -81.1503 189° South 322 371 36,000  Level Jacksonville Center
12:24PM 30.4800 -81.1475 179° South 344 396 36,000  Level Jacksonville Center
12:25PM 30.3819 -81.1444 178° South 350 403 36,000  Level Jacksonville Center
12:27PM 30.1814 -81.1408 179° South 355 409 36,000  Level Jacksonville Center
12:28PM 30.0811 -81.1356 177° South 361 415 36,000  Level Jacksonville Center
12:29PM 29.9933 -81.1347 180° South 366 421 36,000  Level Jacksonville Center
12:30PM 29.8933 -81.1342 180° South 360 414 36,000  Level Jacksonville Center
12:31PM 29.7950 -81.1286 177° South 360 414 36,000  Level Jacksonville Center
12:33PM 29.6236 -81.1233 178° South 355 409 36,000  Level Miami Center
12:34PM 29.5264 -81.1203 178° South 355 409 36,000  Level Miami Center
12:35PM 29.4108 -81.1167 178° South 352 405 36,000  Level Miami Center
12:36PM 29.3117 -81.1119 178° South 352 405 36,000  Level Miami Center
12:37PM 29.2194 -81.0517 150° Southeast 379 436 36,000  Level Miami Center
12:38PM 29.1283 -80.9856 148° Southeast 385 443 36,000  Level Miami Center
12:39PM 29.0358 -80.9183 148° Southeast 393 452 36,000  Level Miami Center
12:41PM 28.8317 -80.7700 148° Southeast 393 452 36,000  Level Miami Center
12:42PM 28.7347 -80.7011 148° Southeast 393 452 36,000  Level Miami Center
12:43PM 28.6389 -80.6308 147° Southeast 392 451 36,000 -1,020 Level Miami Center
12:44PM 28.5494 -80.5672 148° Southeast 393 452 33,900 -2,340 Descending Miami Center
12:45PM 28.4508 -80.4953 147° Southeast 399 459 31,200 -2,400 Descending Miami Center
12:46PM 28.3422 -80.4483 159° South 399 459 29,000 -2,220 Descending Miami Center
12:47PM 28.2308 -80.4144 165° South 398 458 26,700 -2,220 Descending Miami Center
12:48PM 28.1183 -80.3789 164° South 400 460 24,500 -2,100 Descending Miami Center
12:49PM 28.0108 -80.3467 165° South 385 443 22,400 -2,040 Descending Miami Center
12:50PM 27.9156 -80.3178 165° South 368 423 20,400 -2,220 Descending Miami Center
12:51PM 27.8269 -80.2906 165° South 315 362 17,900 -2,640 Descending Miami Center
12:52PM 27.7358 -80.2628 165° South 324 373 14,900 -2,640 Descending Miami Center
12:53PM 27.6461 -80.2358 165° South 319 367 12,500 -2,280 Descending Miami Center
12:54PM 27.5592 -80.2092 165° South 312 359 10,200 -840 Descending Miami Center
12:57PM 27.3992 -80.1608 164° South 297 342 10,000 -120 Descending Miami Center
12:58PM 27.3194 -80.1372 165° South 285 328 10,000 -1,320 Level Miami Center
01:01PM 27.1006 -80.0756 149° Southeast 252 290 4,700 -1,560 Descending Miami Center
01:02PM 27.0300 -80.0625 171° South 248 285 3,600 -1,260 Descending Miami Center
01:03PM 26.9733 -80.0525 171° South 221 254 2,200 -780 Descending Miami Center
01:04PM 26.9197 -80.0425 171° South 194 223 2,000 -120 Descending Miami Center
01:05PM 26.8672 -80.0325 170° South 185 213 2,000  Level Miami Center
01:06PM 26.8153 -80.0233 171° South 184 212 2,000 -180 Level Miami Center
01:07PM 26.7644 -80.0133 170° South 179 206 1,700 -240 Descending Miami Center
01:09PM 26.6811 -80.0136 180° South 153 176 1,400 -360 Descending Miami Center
01:10PM 26.6803 -80.0528 269° West 141 162 600 -780 Descending Miami Center